createdAt,value
2018-08-18T00:01:50.624Z,99.90
2018-08-18T00:04:28.417Z,99.90
2018-08-18T00:07:00.857Z,99.90
2018-08-18T00:09:33.270Z,99.90
2018-08-18T00:12:05.670Z,99.90
2018-08-18T00:14:38.053Z,99.90
2018-08-18T00:17:10.470Z,99.90
2018-08-18T00:19:42.867Z,99.90
2018-08-18T00:22:15.546Z,99.90
2018-08-18T00:24:47.939Z,99.90
2018-08-18T00:27:21.457Z,99.90
2018-08-18T00:29:53.841Z,99.90
2018-08-18T00:32:26.249Z,99.90
2018-08-18T00:34:58.641Z,99.90
2018-08-18T00:37:31.297Z,99.90
2018-08-18T00:40:05.094Z,99.90
2018-08-18T00:42:37.513Z,99.90
2018-08-18T00:45:10.962Z,99.90
2018-08-18T00:47:43.690Z,99.90
2018-08-18T00:50:27.562Z,99.90
2018-08-18T00:52:59.995Z,99.90
2018-08-18T00:55:32.389Z,99.90
2018-08-18T00:58:06.463Z,99.90
2018-08-18T01:00:39.117Z,99.90
2018-08-18T01:03:11.850Z,99.90
2018-08-18T01:05:44.243Z,99.90
2018-08-18T01:08:16.671Z,99.90
2018-08-18T01:10:49.400Z,99.90
2018-08-18T01:13:21.877Z,99.90
2018-08-18T01:15:54.273Z,99.90
2018-08-18T01:18:26.958Z,99.90
2018-08-18T01:20:59.349Z,99.90
2018-08-18T01:23:31.762Z,99.90
2018-08-18T01:26:04.226Z,99.90
2018-08-18T01:28:36.633Z,99.90
2018-08-18T01:31:16.694Z,99.90
2018-08-18T01:33:49.621Z,99.90
2018-08-18T01:36:22.353Z,99.90
2018-08-18T01:38:54.770Z,99.90
2018-08-18T01:41:27.661Z,99.90
2018-08-18T01:44:15.879Z,99.90
2018-08-18T01:46:48.864Z,99.90
2018-08-18T01:49:23.310Z,99.90
2018-08-18T01:51:56.562Z,99.90
2018-08-18T01:54:29.005Z,99.90
2018-08-18T01:57:01.397Z,99.90
2018-08-18T01:59:33.815Z,99.90
2018-08-18T02:02:18.846Z,99.90
2018-08-18T02:04:51.342Z,99.90
2018-08-18T02:07:25.644Z,99.90
2018-08-18T02:09:58.073Z,99.90
2018-08-18T02:12:30.462Z,99.90
2018-08-18T02:15:02.877Z,99.90
2018-08-18T02:17:35.585Z,99.90
2018-08-18T02:20:09.219Z,99.90
2018-08-18T02:22:41.581Z,99.90
2018-08-18T02:25:14.293Z,99.90
2018-08-18T02:27:46.684Z,99.90
2018-08-18T02:30:19.111Z,99.90
2018-08-18T02:32:51.493Z,99.90
2018-08-18T02:35:23.927Z,99.90
2018-08-18T02:37:56.309Z,99.90
2018-08-18T02:40:28.973Z,99.90
2018-08-18T02:43:05.878Z,99.90
2018-08-18T02:45:38.278Z,99.90
2018-08-18T02:48:14.031Z,99.90
2018-08-18T02:50:46.749Z,99.90
2018-08-18T02:53:26.449Z,99.90
2018-08-18T02:55:58.857Z,99.90
2018-08-18T02:58:31.605Z,99.90
2018-08-18T03:01:04.027Z,99.90
2018-08-18T03:03:36.656Z,99.90
2018-08-18T03:06:09.073Z,99.90
2018-08-18T03:08:41.478Z,99.90
2018-08-18T03:11:14.209Z,99.90
2018-08-18T03:13:46.870Z,99.90
2018-08-18T03:16:19.286Z,99.90
2018-08-18T03:18:51.917Z,99.90
2018-08-18T03:21:25.613Z,99.90
2018-08-18T03:24:07.829Z,99.90
2018-08-18T03:26:40.234Z,99.90
2018-08-18T03:29:12.724Z,99.90
2018-08-18T03:31:45.077Z,99.90
2018-08-18T03:34:17.468Z,99.90
2018-08-18T03:36:49.869Z,99.90
2018-08-18T03:39:23.005Z,99.90
2018-08-18T03:41:55.417Z,99.90
2018-08-18T03:44:27.850Z,99.90
2018-08-18T03:47:00.252Z,99.90
2018-08-18T03:49:32.674Z,99.90
2018-08-18T03:52:05.096Z,99.90
2018-08-18T03:54:37.713Z,99.90
2018-08-18T03:57:10.114Z,99.90
2018-08-18T03:59:42.511Z,99.90
2018-08-18T04:02:15.160Z,99.90
2018-08-18T04:04:49.078Z,99.90
2018-08-18T04:07:21.506Z,99.90
2018-08-18T04:09:54.130Z,99.90
2018-08-18T04:12:26.541Z,99.90
2018-08-18T04:14:58.933Z,99.90
2018-08-18T04:17:31.348Z,99.90
2018-08-18T04:20:04.386Z,99.90
2018-08-18T04:22:36.793Z,99.90
2018-08-18T04:25:09.240Z,99.90
2018-08-18T04:27:41.650Z,99.90
2018-08-18T04:30:15.018Z,99.90
2018-08-18T04:32:54.588Z,99.90
2018-08-18T04:35:27.303Z,99.90
2018-08-18T04:38:01.354Z,99.90
2018-08-18T04:40:35.026Z,99.90
2018-08-18T04:43:07.757Z,99.90
2018-08-18T04:45:40.141Z,99.90
2018-08-18T04:48:22.845Z,99.90
2018-08-18T04:50:55.242Z,99.90
2018-08-18T04:53:27.734Z,99.90
2018-08-18T04:56:00.433Z,99.90
2018-08-18T04:58:33.166Z,99.90
2018-08-18T05:01:05.571Z,99.90
2018-08-18T05:03:58.871Z,99.90
2018-08-18T05:06:31.529Z,99.90
2018-08-18T05:09:07.413Z,99.90
2018-08-18T05:11:39.860Z,99.90
2018-08-18T05:14:12.471Z,99.90
2018-08-18T05:16:44.865Z,99.90
2018-08-18T05:19:17.314Z,99.90
2018-08-18T05:21:49.686Z,99.80
2018-08-18T05:24:24.090Z,98.80
2018-08-18T05:26:56.477Z,98.60
2018-08-18T05:29:29.154Z,97.80
2018-08-18T05:32:01.833Z,96.50
2018-08-18T05:34:34.490Z,95.90
2018-08-18T05:37:06.913Z,94.90
2018-08-18T05:39:39.334Z,93.70
2018-08-18T05:42:11.981Z,91.30
2018-08-18T05:44:45.025Z,90.90
2018-08-18T05:47:17.423Z,87.00
2018-08-18T05:49:49.845Z,84.50
2018-08-18T05:52:23.506Z,82.80
2018-08-18T05:54:55.922Z,82.40
2018-08-18T05:57:28.322Z,78.80
2018-08-18T06:00:00.742Z,78.30
2018-08-18T06:02:33.450Z,76.40
2018-08-18T06:05:06.134Z,73.60
2018-08-18T06:10:10.782Z,71.00
2018-08-18T06:12:43.185Z,70.30
2018-08-18T06:15:15.596Z,68.90
2018-08-18T06:17:47.990Z,67.80
2018-08-18T06:20:20.406Z,65.80
2018-08-18T06:22:52.806Z,65.00
2018-08-18T06:25:25.221Z,64.40
2018-08-18T06:27:57.902Z,61.40
2018-08-18T06:30:30.578Z,62.50
2018-08-18T06:33:03.009Z,62.20
2018-08-18T06:35:35.442Z,62.30
2018-08-18T06:38:07.835Z,61.00
2018-08-18T06:40:40.598Z,58.40
2018-08-18T06:43:12.996Z,59.60
2018-08-18T06:45:45.471Z,58.90
2018-08-18T06:48:19.283Z,57.80
2018-08-18T06:50:51.710Z,55.60
2018-08-18T06:53:24.106Z,56.30
2018-08-18T06:55:58.057Z,55.00
2018-08-18T07:01:03.739Z,53.80
2018-08-18T07:03:36.993Z,53.20
2018-08-18T07:06:11.885Z,53.20
2018-08-18T07:08:44.605Z,52.60
2018-08-18T07:11:17.317Z,52.00
2018-08-18T07:13:49.755Z,53.00
2018-08-18T07:16:22.169Z,53.10
2018-08-18T07:18:54.859Z,52.10
2018-08-18T07:21:27.278Z,51.80
2018-08-18T07:24:01.701Z,51.10
2018-08-18T07:26:34.410Z,51.60
2018-08-18T07:29:07.000Z,51.50
2018-08-18T07:31:39.238Z,51.50
2018-08-18T07:34:11.631Z,51.40
2018-08-18T07:36:44.318Z,50.80
2018-08-18T07:39:17.009Z,49.80
2018-08-18T07:41:49.684Z,48.90
2018-08-18T07:44:22.406Z,48.40
2018-08-18T07:46:54.853Z,48.30
2018-08-18T07:49:27.254Z,47.40
2018-08-18T07:51:59.697Z,48.30
2018-08-18T07:54:32.665Z,48.30
2018-08-18T07:57:05.109Z,48.40
2018-08-18T07:59:44.502Z,48.30
2018-08-18T08:02:17.150Z,48.40
2018-08-18T08:04:49.798Z,48.90
2018-08-18T08:07:22.225Z,49.30
2018-08-18T08:09:55.933Z,49.10
2018-08-18T08:12:28.370Z,50.20
2018-08-18T08:15:00.753Z,51.20
2018-08-18T08:17:33.185Z,51.40
2018-08-18T08:20:05.570Z,52.40
2018-08-18T08:22:38.262Z,53.40
2018-08-18T08:25:10.913Z,54.80
2018-08-18T08:27:46.402Z,54.40
2018-08-18T08:30:18.806Z,56.40
2018-08-18T08:32:51.223Z,56.20
2018-08-18T08:35:23.610Z,56.70
2018-08-18T08:37:56.270Z,59.00
2018-08-18T08:40:28.721Z,57.20
2018-08-18T08:43:01.154Z,59.00
2018-08-18T08:45:33.553Z,60.70
2018-08-18T08:48:05.962Z,61.50
2018-08-18T08:50:38.630Z,62.00
2018-08-18T08:53:11.045Z,61.20
2018-08-18T08:55:43.431Z,60.50
2018-08-18T08:58:15.880Z,60.50
2018-08-18T09:00:48.270Z,59.00
2018-08-18T09:03:20.689Z,58.20
2018-08-18T09:05:53.372Z,57.00
2018-08-18T09:08:26.106Z,55.40
2018-08-18T09:10:58.835Z,54.40
2018-08-18T09:13:31.246Z,54.90
2018-08-18T09:16:03.650Z,54.50
2018-08-18T09:18:36.057Z,53.00
2018-08-18T09:21:08.713Z,53.30
2018-08-18T09:23:41.138Z,54.20
2018-08-18T09:26:13.820Z,53.40
2018-08-18T09:28:46.482Z,52.50
2018-08-18T09:31:19.698Z,53.00
2018-08-18T09:33:52.117Z,53.20
2018-08-18T09:36:24.541Z,53.80
2018-08-18T09:38:56.943Z,54.70
2018-08-18T09:41:29.691Z,54.20
2018-08-18T09:44:02.121Z,54.00
2018-08-18T09:46:34.529Z,53.40
2018-08-18T09:49:07.309Z,52.70
2018-08-18T09:51:39.735Z,52.10
2018-08-18T09:54:12.170Z,52.20
2018-08-18T09:56:44.897Z,52.10
2018-08-18T09:59:17.411Z,51.20
2018-08-18T10:04:22.958Z,50.10
2018-08-18T10:06:55.354Z,50.60
2018-08-18T10:09:27.803Z,50.70
2018-08-18T10:12:00.197Z,48.10
2018-08-18T10:14:32.610Z,47.60
2018-08-18T10:17:05.002Z,47.40
2018-08-18T10:19:37.407Z,47.60
2018-08-18T10:22:09.798Z,46.40
2018-08-18T10:24:42.554Z,45.80
2018-08-18T10:27:16.853Z,44.80
2018-08-18T10:29:49.262Z,45.70
2018-08-18T10:32:21.668Z,45.20
2018-08-18T10:34:54.149Z,44.40
2018-08-18T10:37:26.553Z,44.10
2018-08-18T10:39:58.978Z,44.00
2018-08-18T10:42:31.722Z,43.90
2018-08-18T10:45:05.495Z,44.80
2018-08-18T10:47:37.922Z,45.00
2018-08-18T10:50:21.673Z,46.20
2018-08-18T10:52:57.438Z,47.20
2018-08-18T10:55:31.367Z,48.80
2018-08-18T10:58:03.766Z,49.40
2018-08-18T11:00:36.415Z,50.90
2018-08-18T11:03:09.095Z,51.20
2018-08-18T11:05:41.510Z,51.20
2018-08-18T11:08:14.645Z,50.40
2018-08-18T11:10:47.365Z,51.50
2018-08-18T11:13:19.760Z,52.30
2018-08-18T11:15:52.197Z,53.00
2018-08-18T11:18:24.594Z,52.70
2018-08-18T11:20:57.016Z,53.40
2018-08-18T11:23:29.418Z,54.80
2018-08-18T11:26:02.091Z,54.00
2018-08-18T11:28:34.799Z,53.80
2018-08-18T11:31:07.197Z,53.00
2018-08-18T11:33:39.590Z,54.00
2018-08-18T11:36:11.997Z,53.60
2018-08-18T11:38:44.413Z,53.70
2018-08-18T11:41:16.813Z,53.10
2018-08-18T11:43:49.532Z,53.20
2018-08-18T11:46:22.169Z,54.10
2018-08-18T11:48:54.574Z,55.20
2018-08-18T11:51:26.990Z,54.60
2018-08-18T11:53:59.953Z,54.90
2018-08-18T11:56:33.821Z,56.20
2018-08-18T11:59:09.353Z,55.50
2018-08-18T12:01:42.069Z,55.80
2018-08-18T12:04:14.598Z,55.70
2018-08-18T12:06:47.321Z,55.80
2018-08-18T12:09:19.958Z,56.10
2018-08-18T12:11:52.365Z,58.20
2018-08-18T12:14:25.265Z,58.50
2018-08-18T12:16:57.665Z,58.50
2018-08-18T12:19:30.058Z,57.30
2018-08-18T12:22:02.473Z,57.50
2018-08-18T12:24:35.154Z,57.80
2018-08-18T12:27:10.373Z,58.10
2018-08-18T12:29:42.859Z,59.00
2018-08-18T12:32:15.546Z,58.30
2018-08-18T12:34:47.937Z,58.00
2018-08-18T12:37:20.373Z,57.20
2018-08-18T12:39:53.053Z,58.20
2018-08-18T12:42:25.486Z,58.90
2018-08-18T12:44:57.879Z,59.50
2018-08-18T12:47:30.613Z,57.40
2018-08-18T12:50:03.115Z,58.00
2018-08-18T12:52:45.329Z,58.80
2018-08-18T12:55:17.767Z,58.90
2018-08-18T12:57:50.171Z,59.50
2018-08-18T13:00:22.898Z,59.60
2018-08-18T13:02:55.589Z,58.50
2018-08-18T13:05:28.224Z,57.70
2018-08-18T13:08:00.910Z,58.00
2018-08-18T13:10:33.314Z,58.60
2018-08-18T13:13:05.743Z,59.10
2018-08-18T13:15:38.142Z,58.90
2018-08-18T13:18:11.138Z,59.40
2018-08-18T13:20:43.829Z,60.50
2018-08-18T13:23:18.646Z,60.90
2018-08-18T13:25:51.119Z,60.30
2018-08-18T13:28:23.542Z,59.90
2018-08-18T13:30:55.946Z,60.00
2018-08-18T13:33:28.641Z,60.30
2018-08-18T13:36:01.342Z,60.20
2018-08-18T13:38:33.826Z,60.00
2018-08-18T13:41:06.657Z,60.20
2018-08-18T13:43:44.786Z,59.90
2018-08-18T13:46:19.207Z,59.60
2018-08-18T13:48:51.865Z,59.90
2018-08-18T13:51:24.277Z,60.10
2018-08-18T13:53:56.698Z,60.00
2018-08-18T13:56:29.105Z,59.90
2018-08-18T13:59:01.532Z,59.20
2018-08-18T14:01:34.940Z,58.80
2018-08-18T14:04:11.346Z,59.40
2018-08-18T14:06:43.707Z,60.10
2018-08-18T14:09:16.390Z,60.60
2018-08-18T14:11:49.169Z,60.40
2018-08-18T14:14:22.153Z,61.10
2018-08-18T14:16:54.837Z,61.00
2018-08-18T14:19:27.514Z,59.70
2018-08-18T14:21:59.907Z,59.40
2018-08-18T14:24:32.362Z,59.80
2018-08-18T14:27:09.746Z,60.50
2018-08-18T14:29:42.186Z,60.30
2018-08-18T14:32:14.601Z,59.60
2018-08-18T14:34:48.202Z,60.00
2018-08-18T14:37:20.616Z,59.20
2018-08-18T14:39:53.055Z,59.40
2018-08-18T14:42:25.445Z,60.00
2018-08-18T14:44:57.869Z,59.40
2018-08-18T14:47:30.268Z,59.00
2018-08-18T14:50:13.690Z,58.40
2018-08-18T14:52:46.366Z,58.30
2018-08-18T14:55:19.046Z,58.90
2018-08-18T14:57:51.438Z,59.20
2018-08-18T15:00:23.929Z,59.10
2018-08-18T15:02:56.334Z,59.00
2018-08-18T15:05:28.763Z,58.10
2018-08-18T15:08:02.527Z,57.90
2018-08-18T15:10:38.668Z,57.70
2018-08-18T15:13:11.075Z,57.90
2018-08-18T15:15:43.794Z,57.20
2018-08-18T15:18:16.502Z,58.00
2018-08-18T15:20:48.918Z,58.40
2018-08-18T15:23:21.890Z,57.10
2018-08-18T15:25:54.311Z,57.50
2018-08-18T15:28:27.630Z,57.40
2018-08-18T15:31:00.046Z,58.50
2018-08-18T15:33:32.450Z,58.10
2018-08-18T15:36:15.037Z,58.20
2018-08-18T15:38:47.432Z,58.40
2018-08-18T15:41:22.313Z,58.00
2018-08-18T15:43:54.714Z,58.60
2018-08-18T15:46:27.569Z,57.80
2018-08-18T15:49:00.349Z,57.60
2018-08-18T15:51:33.109Z,56.90
2018-08-18T15:54:05.771Z,57.50
2018-08-18T15:56:38.198Z,57.60
2018-08-18T15:59:12.089Z,57.80
2018-08-18T16:01:44.846Z,58.00
2018-08-18T16:04:17.514Z,57.80
2018-08-18T16:06:49.922Z,58.00
2018-08-18T16:09:22.566Z,58.30
2018-08-18T16:11:55.343Z,58.20
2018-08-18T16:14:27.742Z,59.10
2018-08-18T16:17:00.745Z,58.60
2018-08-18T16:19:33.933Z,59.70
2018-08-18T16:22:07.223Z,58.80
2018-08-18T16:24:43.132Z,57.40
2018-08-18T16:27:16.137Z,57.70
2018-08-18T16:29:49.621Z,57.50
2018-08-18T16:32:22.448Z,57.60
2018-08-18T16:34:55.322Z,58.20
2018-08-18T16:37:27.810Z,57.90
2018-08-18T16:40:00.525Z,58.20
2018-08-18T16:42:32.958Z,57.10
2018-08-18T16:45:05.945Z,57.60
2018-08-18T16:47:38.368Z,57.40
2018-08-18T16:50:10.858Z,57.40
2018-08-18T16:52:43.306Z,57.60
2018-08-18T16:55:15.700Z,56.60
2018-08-18T16:57:48.134Z,56.50
2018-08-18T17:00:20.539Z,56.60
2018-08-18T17:02:52.958Z,56.20
2018-08-18T17:05:25.354Z,57.10
2018-08-18T17:07:58.006Z,55.80
2018-08-18T17:10:30.438Z,55.70
2018-08-18T17:13:02.891Z,56.10
2018-08-18T17:15:35.591Z,55.80
2018-08-18T17:18:08.298Z,54.80
2018-08-18T17:20:40.694Z,54.50
2018-08-18T17:23:13.234Z,54.00
2018-08-18T17:25:45.621Z,54.20
2018-08-18T17:28:18.038Z,54.40
2018-08-18T17:30:50.428Z,54.50
2018-08-18T17:33:23.359Z,54.70
2018-08-18T17:35:55.766Z,54.50
2018-08-18T17:38:28.194Z,54.90
2018-08-18T17:41:00.599Z,54.40
2018-08-18T17:43:33.354Z,53.70
2018-08-18T17:46:05.807Z,53.60
2018-08-18T17:48:38.222Z,53.70
2018-08-18T17:51:10.624Z,54.00
2018-08-18T17:53:43.038Z,54.10
2018-08-18T17:56:15.462Z,54.30
2018-08-18T17:58:47.931Z,54.50
2018-08-18T18:01:20.267Z,54.80
2018-08-18T18:03:52.717Z,55.20
2018-08-18T18:06:25.154Z,55.50
2018-08-18T18:08:57.547Z,55.60
2018-08-18T18:11:30.261Z,55.90
2018-08-18T18:14:03.350Z,56.00
2018-08-18T18:16:35.753Z,56.50
2018-08-18T18:19:08.158Z,55.80
2018-08-18T18:21:41.448Z,55.70
2018-08-18T18:24:13.894Z,56.40
2018-08-18T18:26:46.313Z,57.50
2018-08-18T18:29:18.736Z,58.20
2018-08-18T18:31:51.794Z,58.70
2018-08-18T18:34:24.445Z,59.20
2018-08-18T18:36:56.850Z,59.60
2018-08-18T18:39:32.971Z,60.20
2018-08-18T18:42:05.416Z,60.20
2018-08-18T18:44:38.164Z,60.80
2018-08-18T18:47:10.561Z,61.00
2018-08-18T18:49:42.973Z,61.50
2018-08-18T18:52:15.369Z,61.90
2018-08-18T18:54:48.030Z,62.50
2018-08-18T18:57:20.737Z,62.90
2018-08-18T18:59:53.211Z,63.40
2018-08-18T19:02:27.582Z,63.90
2018-08-18T19:05:00.018Z,64.50
2018-08-18T19:07:32.729Z,64.80
2018-08-18T19:10:05.142Z,65.50
2018-08-18T19:12:37.779Z,66.70
2018-08-18T19:15:10.429Z,67.60
2018-08-18T19:17:42.829Z,69.30
2018-08-18T19:20:21.565Z,70.20
2018-08-18T19:22:55.625Z,71.90
2018-08-18T19:25:28.051Z,73.40
2018-08-18T19:28:00.449Z,74.30
2018-08-18T19:30:33.809Z,76.10
2018-08-18T19:33:06.225Z,77.20
2018-08-18T19:35:38.905Z,78.50
2018-08-18T19:38:11.550Z,79.30
2018-08-18T19:40:44.260Z,80.20
2018-08-18T19:43:16.579Z,81.00
2018-08-18T19:45:49.311Z,82.10
2018-08-18T19:48:22.000Z,83.00
2018-08-18T19:50:54.435Z,83.60
2018-08-18T19:53:27.710Z,84.50
2018-08-18T19:56:00.115Z,85.00
2018-08-18T19:58:32.522Z,85.60
2018-08-18T20:01:05.253Z,86.20
2018-08-18T20:03:37.645Z,86.60
2018-08-18T20:06:10.321Z,87.20
2018-08-18T20:08:42.725Z,87.70
2018-08-18T20:11:15.287Z,88.10
2018-08-18T20:13:47.969Z,88.60
2018-08-18T20:16:20.738Z,88.90
2018-08-18T20:18:53.134Z,89.20
2018-08-18T20:21:25.865Z,89.30
2018-08-18T20:23:58.246Z,90.00
2018-08-18T20:26:30.933Z,90.20
2018-08-18T20:29:03.581Z,90.40
2018-08-18T20:31:36.294Z,90.50
2018-08-18T20:34:09.185Z,90.90
2018-08-18T20:36:41.632Z,90.90
2018-08-18T20:39:14.294Z,91.10
2018-08-18T20:41:46.718Z,91.10
2018-08-18T20:44:19.117Z,91.20
2018-08-18T20:46:51.518Z,91.50
2018-08-18T20:49:23.914Z,91.80
2018-08-18T20:51:56.590Z,92.20
2018-08-18T20:54:29.954Z,92.40
2018-08-18T20:57:02.378Z,92.60
2018-08-18T20:59:35.018Z,92.80
2018-08-18T21:02:07.729Z,92.80
2018-08-18T21:04:40.410Z,92.90
2018-08-18T21:07:12.826Z,93.10
2018-08-18T21:09:45.462Z,93.30
2018-08-18T21:12:17.876Z,93.40
2018-08-18T21:14:50.280Z,93.50
2018-08-18T21:17:22.697Z,93.60
2018-08-18T21:19:55.099Z,94.00
2018-08-18T21:22:27.518Z,93.90
2018-08-18T21:24:59.909Z,94.00
2018-08-18T21:27:32.414Z,94.00
2018-08-18T21:30:07.687Z,94.20
2018-08-18T21:32:40.389Z,94.30
2018-08-18T21:35:12.805Z,94.50
2018-08-18T21:37:45.907Z,94.70
2018-08-18T21:40:18.301Z,94.70
2018-08-18T21:42:50.722Z,94.90
2018-08-18T21:45:23.442Z,95.10
2018-08-18T21:47:56.141Z,95.10
2018-08-18T21:50:28.570Z,95.30
2018-08-18T21:53:00.978Z,95.40
2018-08-18T21:55:33.387Z,95.50
2018-08-18T21:58:06.147Z,95.80
2018-08-18T22:00:38.580Z,95.70
2018-08-18T22:03:11.017Z,95.90
2018-08-18T22:05:43.398Z,96.10
2018-08-18T22:08:15.818Z,96.10
2018-08-18T22:10:48.531Z,96.20
2018-08-18T22:13:21.272Z,96.20
2018-08-18T22:15:53.942Z,96.40
2018-08-18T22:18:26.362Z,96.50
2018-08-18T22:20:59.034Z,96.50
2018-08-18T22:23:31.658Z,96.70
2018-08-18T22:26:04.349Z,96.90
2018-08-18T22:28:36.778Z,96.80
2018-08-18T22:31:09.442Z,97.00
2018-08-18T22:33:42.109Z,97.00
2018-08-18T22:36:14.766Z,97.10
2018-08-18T22:38:47.196Z,97.10
2018-08-18T22:41:19.608Z,97.60
2018-08-18T22:43:52.018Z,97.20
2018-08-18T22:46:24.453Z,97.30
2018-08-18T22:48:56.900Z,97.40
2018-08-18T22:51:29.541Z,97.70
2018-08-18T22:54:02.500Z,97.80
2018-08-18T22:56:35.169Z,97.90
2018-08-18T22:59:07.885Z,97.80
2018-08-18T23:01:40.277Z,97.80
2018-08-18T23:04:24.289Z,99.90
2018-08-18T23:06:57.069Z,98.70
2018-08-18T23:09:29.492Z,97.90
2018-08-18T23:14:36.437Z,98.00
2018-08-18T23:17:09.540Z,98.40
2018-08-18T23:19:41.982Z,98.30
2018-08-18T23:22:25.865Z,98.40
2018-08-18T23:24:58.613Z,98.60
2018-08-18T23:27:31.275Z,98.60
2018-08-18T23:30:04.797Z,98.60
2018-08-18T23:32:37.429Z,98.60
2018-08-18T23:35:10.206Z,98.70
2018-08-18T23:37:42.609Z,98.80
2018-08-18T23:40:15.057Z,98.70
2018-08-18T23:42:47.478Z,98.60
2018-08-18T23:45:20.152Z,98.60
2018-08-18T23:47:52.806Z,98.70
2018-08-18T23:50:25.233Z,99.00
2018-08-18T23:53:00.737Z,99.00
2018-08-18T23:55:33.183Z,99.00
2018-08-18T23:58:05.869Z,99.00
